TimePDT,TemperatureF,Dew PointF,Humidity,Sea Level PressureIn,VisibilityMPH,Wind Direction,Wind SpeedMPH,Gust SpeedMPH,PrecipitationIn,Events,Conditions,WindDirDegrees,DateUTC
12:53 AM,57.0,54.0,89,30.01,10.0,WNW,10.4,-,N/A,,Clear,300,2013-08-08 07:53:00
1:53 AM,57.0,54.0,89,30.01,10.0,WNW,9.2,-,N/A,,Clear,290,2013-08-08 08:53:00
2:53 AM,55.9,54.0,93,30.01,10.0,West,10.4,-,N/A,,Clear,280,2013-08-08 09:53:00
3:26 AM,55.0,54.0,96,30.01,10.0,WNW,8.1,-,N/A,,Scattered Clouds,290,2013-08-08 10:26:00
3:34 AM,55.0,54.0,96,30.02,10.0,WNW,8.1,-,N/A,,Mostly Cloudy,300,2013-08-08 10:34:00
3:43 AM,55.0,54.0,96,30.01,10.0,WNW,10.4,-,N/A,,Scattered Clouds,290,2013-08-08 10:43:00
3:53 AM,55.0,54.0,96,30.01,10.0,West,9.2,-,N/A,,Partly Cloudy,280,2013-08-08 10:53:00
4:28 AM,54.0,53.1,97,30.01,1.5,WNW,6.9,-,N/A,,Scattered Clouds,300,2013-08-08 11:28:00
4:32 AM,54.0,53.1,97,30.01,0.8,WNW,5.8,-,N/A,,Mist,300,2013-08-08 11:32:00
4:53 AM,53.1,52.0,96,30.02,0.5,NW,4.6,-,N/A,Fog,Fog,310,2013-08-08 11:53:00
5:17 AM,53.1,52.0,96,30.02,0.2,NW,3.5,-,N/A,Fog,Fog,320,2013-08-08 12:17:00
5:53 AM,53.1,53.1,100,30.02,0.2,Calm,Calm,-,N/A,Fog,Fog,0,2013-08-08 12:53:00
6:12 AM,54.0,53.1,97,30.02,0.2,West,3.5,-,N/A,Fog,Fog,270,2013-08-08 13:12:00
6:26 AM,54.0,53.1,97,30.03,1.0,West,5.8,-,N/A,,Mist,270,2013-08-08 13:26:00
6:41 AM,54.0,53.1,97,30.03,0.2,NW,3.5,-,N/A,Fog,Fog,320,2013-08-08 13:41:00
6:53 AM,54.0,53.1,97,30.03,0.2,NW,5.8,-,N/A,Fog,Fog,310,2013-08-08 13:53:00
7:53 AM,55.0,54.0,96,30.04,0.8,WNW,8.1,-,N/A,,Mist,300,2013-08-08 14:53:00
8:09 AM,55.0,54.0,96,30.04,1.2,WNW,6.9,-,N/A,,Overcast,290,2013-08-08 15:09:00
8:21 AM,55.0,54.0,96,30.03,2.0,West,4.6,-,N/A,,Overcast,270,2013-08-08 15:21:00
8:46 AM,55.0,54.0,96,30.03,4.0,NW,3.5,-,N/A,,Overcast,310,2013-08-08 15:46:00
8:53 AM,55.9,55.0,97,30.03,7.0,NW,5.8,-,N/A,,Overcast,310,2013-08-08 15:53:00
9:53 AM,59.0,54.0,83,30.04,10.0,NW,6.9,-,N/A,,Scattered Clouds,310,2013-08-08 16:53:00
10:53 AM,62.1,55.0,78,30.04,10.0,NNW,4.6,-,N/A,,Clear,330,2013-08-08 17:53:00
11:53 AM,66.0,55.0,68,30.04,10.0,WNW,6.9,-,N/A,,Clear,300,2013-08-08 18:53:00
12:53 PM,64.9,55.0,70,30.03,10.0,NNW,8.1,-,N/A,,Clear,330,2013-08-08 19:53:00
1:53 PM,68.0,55.0,63,30.03,10.0,NW,8.1,-,N/A,,Clear,310,2013-08-08 20:53:00
2:53 PM,64.9,54.0,68,30.03,10.0,NW,13.8,-,N/A,,Clear,310,2013-08-08 21:53:00
3:53 PM,64.9,54.0,68,30.02,10.0,NW,11.5,-,N/A,,Clear,320,2013-08-08 22:53:00
4:53 PM,64.9,55.0,70,30.01,10.0,NW,5.8,-,N/A,,Clear,320,2013-08-08 23:53:00
5:53 PM,63.0,55.0,75,30.00,10.0,NW,10.4,-,N/A,,Clear,310,2013-08-09 00:53:00
6:53 PM,62.1,55.0,78,29.99,10.0,WNW,15.0,25.3,N/A,,Clear,300,2013-08-09 01:53:00
7:53 PM,60.1,54.0,80,29.98,10.0,WNW,12.7,21.9,N/A,,Clear,300,2013-08-09 02:53:00
8:53 PM,57.0,54.0,89,29.97,10.0,West,8.1,-,N/A,,Clear,280,2013-08-09 03:53:00
9:53 PM,55.9,53.1,90,29.97,10.0,WNW,5.8,-,N/A,,Clear,300,2013-08-09 04:53:00
10:41 PM,55.0,54.0,96,29.97,10.0,WNW,12.7,-,N/A,,Scattered Clouds,300,2013-08-09 05:41:00
10:53 PM,55.0,53.1,93,29.97,10.0,NW,11.5,-,N/A,,Mostly Cloudy,310,2013-08-09 05:53:00
11:53 PM,54.0,53.1,97,29.97,3.0,WNW,10.4,-,N/A,,Overcast,290,2013-08-09 06:53:00